sensor_id;sensor_type;location;lat;lon;timestamp;P1;durP1;ratioP1;P2;durP2;ratioP2
5393;SDS011;2720;52.396;10.064;2023-05-10T01:21:36;8.10;;;4.73;;
5393;SDS011;2720;52.396;10.064;2023-05-10T01:25:08;10.20;;;4.90;;
5393;SDS011;2720;52.396;10.064;2023-05-10T01:52:29;6.37;;;3.80;;
5393;SDS011;2720;52.396;10.064;2023-05-10T01:55:35;9.43;;;4.80;;
5393;SDS011;2720;52.396;10.064;2023-05-10T01:58:35;7.80;;;4.73;;
5393;SDS011;2720;52.396;10.064;2023-05-10T02:08:18;8.50;;;5.30;;
5393;SDS011;2720;52.396;10.064;2023-05-10T02:11:24;5.57;;;4.30;;
5393;SDS011;2720;52.396;10.064;2023-05-10T02:39:21;9.00;;;5.40;;
5393;SDS011;2720;52.396;10.064;2023-05-10T02:41:50;8.33;;;4.77;;
5393;SDS011;2720;52.396;10.064;2023-05-10T02:44:18;14.03;;;4.83;;
5393;SDS011;2720;52.396;10.064;2023-05-10T02:46:46;11.73;;;4.73;;
5393;SDS011;2720;52.396;10.064;2023-05-10T02:49:14;9.77;;;4.90;;
5393;SDS011;2720;52.396;10.064;2023-05-10T02:51:42;8.17;;;4.63;;
5393;SDS011;2720;52.396;10.064;2023-05-10T02:54:15;6.97;;;4.73;;
5393;SDS011;2720;52.396;10.064;2023-05-10T02:56:50;7.40;;;4.40;;
5393;SDS011;2720;52.396;10.064;2023-05-10T02:59:19;15.30;;;5.57;;
5393;SDS011;2720;52.396;10.064;2023-05-10T03:01:47;5.97;;;4.03;;
5393;SDS011;2720;52.396;10.064;2023-05-10T03:04:14;7.70;;;4.33;;
5393;SDS011;2720;52.396;10.064;2023-05-10T03:06:41;7.43;;;5.03;;
5393;SDS011;2720;52.396;10.064;2023-05-10T03:09:08;8.60;;;4.90;;
5393;SDS011;2720;52.396;10.064;2023-05-10T03:11:43;7.30;;;5.00;;
5393;SDS011;2720;52.396;10.064;2023-05-10T03:14:23;7.77;;;4.50;;
5393;SDS011;2720;52.396;10.064;2023-05-10T03:16:56;10.43;;;4.97;;
5393;SDS011;2720;52.396;10.064;2023-05-10T03:19:26;7.30;;;4.33;;
5393;SDS011;2720;52.396;10.064;2023-05-10T03:21:59;8.30;;;4.30;;
5393;SDS011;2720;52.396;10.064;2023-05-10T03:24:29;9.80;;;4.50;;
5393;SDS011;2720;52.396;10.064;2023-05-10T03:26:58;5.93;;;3.90;;
5393;SDS011;2720;52.396;10.064;2023-05-10T03:29:29;8.67;;;4.70;;
5393;SDS011;2720;52.396;10.064;2023-05-10T03:31:57;5.97;;;4.40;;
5393;SDS011;2720;52.396;10.064;2023-05-10T03:34:25;11.27;;;4.77;;
5393;SDS011;2720;52.396;10.064;2023-05-10T03:36:52;6.47;;;4.57;;
5393;SDS011;2720;52.396;10.064;2023-05-10T03:39:19;6.30;;;3.73;;
5393;SDS011;2720;52.396;10.064;2023-05-10T03:41:46;7.07;;;3.70;;
5393;SDS011;2720;52.396;10.064;2023-05-10T03:44:13;11.73;;;4.67;;
5393;SDS011;2720;52.396;10.064;2023-05-10T03:46:42;9.07;;;4.23;;
5393;SDS011;2720;52.396;10.064;2023-05-10T03:49:09;10.50;;;4.50;;
5393;SDS011;2720;52.396;10.064;2023-05-10T03:51:37;8.60;;;4.93;;
5393;SDS011;2720;52.396;10.064;2023-05-10T03:54:04;7.37;;;5.10;;
5393;SDS011;2720;52.396;10.064;2023-05-10T03:56:31;10.37;;;4.90;;
5393;SDS011;2720;52.396;10.064;2023-05-10T03:58:57;7.37;;;5.00;;
5393;SDS011;2720;52.396;10.064;2023-05-10T04:01:24;10.07;;;4.53;;
5393;SDS011;2720;52.396;10.064;2023-05-10T04:03:53;8.70;;;6.00;;
5393;SDS011;2720;52.396;10.064;2023-05-10T04:06:20;11.33;;;5.30;;
5393;SDS011;2720;52.396;10.064;2023-05-10T04:08:47;7.17;;;3.97;;
5393;SDS011;2720;52.396;10.064;2023-05-10T04:11:14;7.80;;;4.83;;
5393;SDS011;2720;52.396;10.064;2023-05-10T04:13:41;9.70;;;4.50;;
5393;SDS011;2720;52.396;10.064;2023-05-10T04:16:08;13.67;;;4.73;;
5393;SDS011;2720;52.396;10.064;2023-05-10T04:18:35;7.47;;;4.83;;
5393;SDS011;2720;52.396;10.064;2023-05-10T04:21:04;6.20;;;4.90;;
5393;SDS011;2720;52.396;10.064;2023-05-10T04:23:31;9.70;;;4.60;;
5393;SDS011;2720;52.396;10.064;2023-05-10T04:26:00;11.47;;;4.73;;
5393;SDS011;2720;52.396;10.064;2023-05-10T04:28:28;8.50;;;5.30;;
5393;SDS011;2720;52.396;10.064;2023-05-10T04:31:00;8.67;;;4.33;;
5393;SDS011;2720;52.396;10.064;2023-05-10T04:33:27;8.80;;;4.57;;
5393;SDS011;2720;52.396;10.064;2023-05-10T04:35:54;11.57;;;4.37;;
5393;SDS011;2720;52.396;10.064;2023-05-10T04:38:22;7.80;;;4.87;;
5393;SDS011;2720;52.396;10.064;2023-05-10T04:40:50;8.90;;;5.30;;
5393;SDS011;2720;52.396;10.064;2023-05-10T04:43:17;9.00;;;4.83;;
5393;SDS011;2720;52.396;10.064;2023-05-10T04:45:44;9.47;;;5.63;;
5393;SDS011;2720;52.396;10.064;2023-05-10T04:48:11;9.10;;;5.10;;
5393;SDS011;2720;52.396;10.064;2023-05-10T04:50:38;13.23;;;5.30;;
5393;SDS011;2720;52.396;10.064;2023-05-10T04:53:05;9.30;;;5.10;;
5393;SDS011;2720;52.396;10.064;2023-05-10T04:55:34;14.13;;;6.03;;
5393;SDS011;2720;52.396;10.064;2023-05-10T04:58:01;12.53;;;6.00;;
5393;SDS011;2720;52.396;10.064;2023-05-10T05:00:28;13.47;;;6.00;;
5393;SDS011;2720;52.396;10.064;2023-05-10T05:02:56;14.00;;;5.73;;
5393;SDS011;2720;52.396;10.064;2023-05-10T05:05:23;8.30;;;5.30;;
5393;SDS011;2720;52.396;10.064;2023-05-10T05:07:50;15.33;;;6.50;;
5393;SDS011;2720;52.396;10.064;2023-05-10T05:10:17;12.03;;;6.20;;
5393;SDS011;2720;52.396;10.064;2023-05-10T05:12:45;13.33;;;7.13;;
5393;SDS011;2720;52.396;10.064;2023-05-10T05:15:12;10.27;;;6.10;;
5393;SDS011;2720;52.396;10.064;2023-05-10T05:17:41;23.43;;;7.70;;
5393;SDS011;2720;52.396;10.064;2023-05-10T05:20:08;10.70;;;7.03;;
5393;SDS011;2720;52.396;10.064;2023-05-10T05:22:36;21.17;;;6.20;;
5393;SDS011;2720;52.396;10.064;2023-05-10T05:25:04;13.97;;;6.07;;
5393;SDS011;2720;52.396;10.064;2023-05-10T05:27:32;16.03;;;6.60;;
5393;SDS011;2720;52.396;10.064;2023-05-10T05:30:00;12.63;;;7.00;;
5393;SDS011;2720;52.396;10.064;2023-05-10T05:32:27;13.30;;;6.80;;
5393;SDS011;2720;52.396;10.064;2023-05-10T05:34:54;12.27;;;6.47;;
5393;SDS011;2720;52.396;10.064;2023-05-10T05:37:21;13.67;;;7.37;;
5393;SDS011;2720;52.396;10.064;2023-05-10T05:39:49;15.20;;;7.10;;
5393;SDS011;2720;52.396;10.064;2023-05-10T05:42:16;10.13;;;6.60;;
5393;SDS011;2720;52.396;10.064;2023-05-10T05:44:44;16.00;;;6.27;;
5393;SDS011;2720;52.396;10.064;2023-05-10T05:47:12;13.27;;;7.53;;
5393;SDS011;2720;52.396;10.064;2023-05-10T05:49:39;14.63;;;8.10;;
5393;SDS011;2720;52.396;10.064;2023-05-10T05:52:06;10.70;;;5.93;;
5393;SDS011;2720;52.396;10.064;2023-05-10T05:54:33;15.43;;;7.63;;
5393;SDS011;2720;52.396;10.064;2023-05-10T05:57:00;13.53;;;6.60;;
5393;SDS011;2720;52.396;10.064;2023-05-10T05:59:28;16.20;;;7.73;;
5393;SDS011;2720;52.396;10.064;2023-05-10T06:01:55;23.30;;;7.60;;
5393;SDS011;2720;52.396;10.064;2023-05-10T06:04:23;10.90;;;5.90;;
5393;SDS011;2720;52.396;10.064;2023-05-10T06:06:50;16.70;;;7.30;;
5393;SDS011;2720;52.396;10.064;2023-05-10T06:09:17;11.70;;;6.63;;
5393;SDS011;2720;52.396;10.064;2023-05-10T06:11:44;12.53;;;7.10;;
5393;SDS011;2720;52.396;10.064;2023-05-10T06:14:11;13.60;;;7.50;;
5393;SDS011;2720;52.396;10.064;2023-05-10T06:16:38;13.23;;;7.60;;
5393;SDS011;2720;52.396;10.064;2023-05-10T06:19:05;11.50;;;7.33;;
5393;SDS011;2720;52.396;10.064;2023-05-10T06:21:33;12.50;;;7.40;;
5393;SDS011;2720;52.396;10.064;2023-05-10T06:24:00;15.23;;;7.27;;
5393;SDS011;2720;52.396;10.064;2023-05-10T06:26:28;16.33;;;7.77;;
5393;SDS011;2720;52.396;10.064;2023-05-10T06:28:55;11.53;;;6.70;;
5393;SDS011;2720;52.396;10.064;2023-05-10T06:31:22;10.70;;;6.60;;
5393;SDS011;2720;52.396;10.064;2023-05-10T06:33:49;11.83;;;6.37;;
5393;SDS011;2720;52.396;10.064;2023-05-10T06:36:16;11.60;;;7.10;;
5393;SDS011;2720;52.396;10.064;2023-05-10T06:38:44;13.53;;;6.30;;
5393;SDS011;2720;52.396;10.064;2023-05-10T06:41:11;15.70;;;7.17;;
5393;SDS011;2720;52.396;10.064;2023-05-10T06:43:38;11.70;;;7.23;;
5393;SDS011;2720;52.396;10.064;2023-05-10T06:46:06;11.73;;;6.70;;
5393;SDS011;2720;52.396;10.064;2023-05-10T06:48:33;9.20;;;5.87;;
5393;SDS011;2720;52.396;10.064;2023-05-10T06:51:00;11.43;;;7.30;;
5393;SDS011;2720;52.396;10.064;2023-05-10T06:53:27;12.10;;;6.87;;
5393;SDS011;2720;52.396;10.064;2023-05-10T06:55:56;12.80;;;6.93;;
5393;SDS011;2720;52.396;10.064;2023-05-10T06:58:23;12.17;;;5.70;;
5393;SDS011;2720;52.396;10.064;2023-05-10T07:00:50;9.23;;;5.47;;
5393;SDS011;2720;52.396;10.064;2023-05-10T07:03:17;9.17;;;5.50;;
5393;SDS011;2720;52.396;10.064;2023-05-10T07:05:44;10.27;;;5.57;;
5393;SDS011;2720;52.396;10.064;2023-05-10T07:08:11;9.53;;;5.63;;
5393;SDS011;2720;52.396;10.064;2023-05-10T07:10:39;13.30;;;6.40;;
5393;SDS011;2720;52.396;10.064;2023-05-10T07:13:07;11.00;;;6.20;;
5393;SDS011;2720;52.396;10.064;2023-05-10T07:15:35;10.90;;;6.57;;
5393;SDS011;2720;52.396;10.064;2023-05-10T07:18:02;10.87;;;6.30;;
5393;SDS011;2720;52.396;10.064;2023-05-10T07:20:31;11.27;;;7.00;;
5393;SDS011;2720;52.396;10.064;2023-05-10T07:22:58;17.90;;;5.73;;
5393;SDS011;2720;52.396;10.064;2023-05-10T07:25:25;12.03;;;6.20;;
5393;SDS011;2720;52.396;10.064;2023-05-10T07:27:52;12.77;;;6.40;;
5393;SDS011;2720;52.396;10.064;2023-05-10T07:30:20;10.97;;;7.43;;
5393;SDS011;2720;52.396;10.064;2023-05-10T07:32:47;11.30;;;7.30;;
5393;SDS011;2720;52.396;10.064;2023-05-10T07:35:14;12.50;;;6.37;;
5393;SDS011;2720;52.396;10.064;2023-05-10T07:37:41;10.87;;;6.80;;
5393;SDS011;2720;52.396;10.064;2023-05-10T07:40:08;14.20;;;7.13;;
5393;SDS011;2720;52.396;10.064;2023-05-10T07:42:36;13.50;;;7.80;;
5393;SDS011;2720;52.396;10.064;2023-05-10T07:45:03;19.70;;;7.33;;
5393;SDS011;2720;52.396;10.064;2023-05-10T07:47:32;11.00;;;7.10;;
5393;SDS011;2720;52.396;10.064;2023-05-10T07:49:59;9.13;;;6.70;;
5393;SDS011;2720;52.396;10.064;2023-05-10T07:52:26;10.40;;;5.43;;
5393;SDS011;2720;52.396;10.064;2023-05-10T07:54:53;10.20;;;5.80;;
5393;SDS011;2720;52.396;10.064;2023-05-10T07:57:21;10.63;;;5.43;;
5393;SDS011;2720;52.396;10.064;2023-05-10T07:59:48;8.37;;;5.03;;
5393;SDS011;2720;52.396;10.064;2023-05-10T08:02:15;8.93;;;5.10;;
5393;SDS011;2720;52.396;10.064;2023-05-10T08:04:44;7.57;;;4.53;;
5393;SDS011;2720;52.396;10.064;2023-05-10T08:07:11;8.67;;;5.40;;
5393;SDS011;2720;52.396;10.064;2023-05-10T08:09:38;15.50;;;5.30;;
5393;SDS011;2720;52.396;10.064;2023-05-10T08:12:05;7.93;;;4.93;;
5393;SDS011;2720;52.396;10.064;2023-05-10T08:14:32;7.60;;;5.13;;
5393;SDS011;2720;52.396;10.064;2023-05-10T08:17:01;11.80;;;5.10;;
5393;SDS011;2720;52.396;10.064;2023-05-10T08:19:28;6.90;;;4.93;;
5393;SDS011;2720;52.396;10.064;2023-05-10T08:21:57;9.77;;;5.53;;
5393;SDS011;2720;52.396;10.064;2023-05-10T08:24:24;9.30;;;5.83;;
5393;SDS011;2720;52.396;10.064;2023-05-10T08:26:51;9.63;;;5.23;;
5393;SDS011;2720;52.396;10.064;2023-05-10T08:29:18;10.77;;;5.27;;
5393;SDS011;2720;52.396;10.064;2023-05-10T08:31:45;12.43;;;6.20;;
5393;SDS011;2720;52.396;10.064;2023-05-10T08:34:11;10.40;;;5.97;;
5393;SDS011;2720;52.396;10.064;2023-05-10T08:36:38;10.57;;;6.07;;
5393;SDS011;2720;52.396;10.064;2023-05-10T08:39:07;8.57;;;5.70;;
5393;SDS011;2720;52.396;10.064;2023-05-10T08:41:34;14.03;;;5.77;;
5393;SDS011;2720;52.396;10.064;2023-05-10T08:44:05;10.90;;;5.57;;
5393;SDS011;2720;52.396;10.064;2023-05-10T08:46:34;14.60;;;5.90;;
5393;SDS011;2720;52.396;10.064;2023-05-10T08:49:05;7.00;;;4.70;;
5393;SDS011;2720;52.396;10.064;2023-05-10T08:51:35;7.17;;;4.53;;
5393;SDS011;2720;52.396;10.064;2023-05-10T08:54:07;9.03;;;4.90;;
5393;SDS011;2720;52.396;10.064;2023-05-10T08:56:34;6.33;;;4.20;;
5393;SDS011;2720;52.396;10.064;2023-05-10T08:59:02;9.13;;;4.40;;
5393;SDS011;2720;52.396;10.064;2023-05-10T09:01:29;5.87;;;3.87;;
5393;SDS011;2720;52.396;10.064;2023-05-10T09:03:58;6.60;;;4.17;;
5393;SDS011;2720;52.396;10.064;2023-05-10T09:06:25;5.37;;;3.40;;
5393;SDS011;2720;52.396;10.064;2023-05-10T09:08:53;6.33;;;3.37;;
5393;SDS011;2720;52.396;10.064;2023-05-10T09:11:22;5.37;;;3.30;;
5393;SDS011;2720;52.396;10.064;2023-05-10T09:13:50;7.33;;;3.50;;
5393;SDS011;2720;52.396;10.064;2023-05-10T09:16:18;4.60;;;2.63;;
5393;SDS011;2720;52.396;10.064;2023-05-10T09:18:45;5.10;;;3.17;;
5393;SDS011;2720;52.396;10.064;2023-05-10T09:21:12;5.73;;;3.63;;
5393;SDS011;2720;52.396;10.064;2023-05-10T09:23:42;5.50;;;3.10;;
5393;SDS011;2720;52.396;10.064;2023-05-10T09:26:09;5.13;;;3.40;;
5393;SDS011;2720;52.396;10.064;2023-05-10T09:28:50;6.10;;;2.87;;
5393;SDS011;2720;52.396;10.064;2023-05-10T09:31:18;5.97;;;3.70;;
5393;SDS011;2720;52.396;10.064;2023-05-10T09:33:45;5.23;;;3.37;;
5393;SDS011;2720;52.396;10.064;2023-05-10T09:36:13;7.50;;;4.50;;
5393;SDS011;2720;52.396;10.064;2023-05-10T09:38:47;9.10;;;5.63;;
5393;SDS011;2720;52.396;10.064;2023-05-10T09:41:15;5.60;;;3.40;;
5393;SDS011;2720;52.396;10.064;2023-05-10T09:43:44;5.27;;;3.40;;
5393;SDS011;2720;52.396;10.064;2023-05-10T09:46:11;9.67;;;3.10;;
5393;SDS011;2720;52.396;10.064;2023-05-10T09:48:40;6.03;;;2.60;;
5393;SDS011;2720;52.396;10.064;2023-05-10T09:51:09;10.57;;;3.63;;
5393;SDS011;2720;52.396;10.064;2023-05-10T09:53:36;4.23;;;2.70;;
5393;SDS011;2720;52.396;10.064;2023-05-10T09:56:03;2.90;;;1.67;;
5393;SDS011;2720;52.396;10.064;2023-05-10T09:58:30;6.80;;;2.20;;
5393;SDS011;2720;52.396;10.064;2023-05-10T10:01:00;5.97;;;1.80;;
5393;SDS011;2720;52.396;10.064;2023-05-10T10:03:27;3.20;;;1.97;;
5393;SDS011;2720;52.396;10.064;2023-05-10T10:05:56;6.10;;;2.40;;
5393;SDS011;2720;52.396;10.064;2023-05-10T10:08:23;3.67;;;2.20;;
5393;SDS011;2720;52.396;10.064;2023-05-10T10:10:51;4.73;;;2.37;;
5393;SDS011;2720;52.396;10.064;2023-05-10T10:13:18;4.20;;;2.37;;
5393;SDS011;2720;52.396;10.064;2023-05-10T10:15:45;4.97;;;3.40;;
5393;SDS011;2720;52.396;10.064;2023-05-10T10:18:17;4.33;;;2.90;;
5393;SDS011;2720;52.396;10.064;2023-05-10T10:20:48;4.60;;;3.37;;
5393;SDS011;2720;52.396;10.064;2023-05-10T10:23:16;7.30;;;3.53;;
5393;SDS011;2720;52.396;10.064;2023-05-10T10:25:42;7.63;;;3.70;;
5393;SDS011;2720;52.396;10.064;2023-05-10T10:28:16;5.67;;;3.80;;
5393;SDS011;2720;52.396;10.064;2023-05-10T10:30:52;7.33;;;4.37;;
5393;SDS011;2720;52.396;10.064;2023-05-10T10:33:40;5.10;;;3.20;;
5393;SDS011;2720;52.396;10.064;2023-05-10T10:36:25;6.10;;;3.70;;
5393;SDS011;2720;52.396;10.064;2023-05-10T10:38:57;6.97;;;3.50;;
5393;SDS011;2720;52.396;10.064;2023-05-10T10:41:29;9.37;;;4.10;;
5393;SDS011;2720;52.396;10.064;2023-05-10T10:49:48;5.20;;;3.33;;
5393;SDS011;2720;52.396;10.064;2023-05-10T10:52:23;4.87;;;3.23;;
5393;SDS011;2720;52.396;10.064;2023-05-10T10:54:57;9.63;;;2.77;;
5393;SDS011;2720;52.396;10.064;2023-05-10T10:57:26;5.43;;;3.50;;
5393;SDS011;2720;52.396;10.064;2023-05-10T11:02:53;4.57;;;2.50;;
5393;SDS011;2720;52.396;10.064;2023-05-10T11:08:12;9.80;;;2.90;;
5393;SDS011;2720;52.396;10.064;2023-05-10T11:10:49;4.13;;;2.33;;
5393;SDS011;2720;52.396;10.064;2023-05-10T11:13:26;6.33;;;3.07;;
5393;SDS011;2720;52.396;10.064;2023-05-10T11:15:54;4.83;;;2.90;;
5393;SDS011;2720;52.396;10.064;2023-05-10T11:18:23;4.77;;;2.30;;
5393;SDS011;2720;52.396;10.064;2023-05-10T11:20:55;4.70;;;2.10;;
5393;SDS011;2720;52.396;10.064;2023-05-10T11:23:29;4.23;;;2.43;;
5393;SDS011;2720;52.396;10.064;2023-05-10T11:25:56;6.70;;;2.70;;
5393;SDS011;2720;52.396;10.064;2023-05-10T11:28:25;7.17;;;2.90;;
5393;SDS011;2720;52.396;10.064;2023-05-10T11:30:53;5.10;;;2.33;;
5393;SDS011;2720;52.396;10.064;2023-05-10T11:33:20;4.53;;;2.60;;
5393;SDS011;2720;52.396;10.064;2023-05-10T11:35:47;4.50;;;3.07;;
5393;SDS011;2720;52.396;10.064;2023-05-10T11:38:15;6.90;;;2.80;;
5393;SDS011;2720;52.396;10.064;2023-05-10T11:40:43;4.10;;;2.57;;
5393;SDS011;2720;52.396;10.064;2023-05-10T11:43:10;6.53;;;3.43;;
5393;SDS011;2720;52.396;10.064;2023-05-10T11:45:37;4.60;;;3.33;;
5393;SDS011;2720;52.396;10.064;2023-05-10T11:48:06;7.30;;;3.27;;
5393;SDS011;2720;52.396;10.064;2023-05-10T11:50:33;4.20;;;3.10;;
5393;SDS011;2720;52.396;10.064;2023-05-10T11:53:00;4.43;;;2.87;;
5393;SDS011;2720;52.396;10.064;2023-05-10T11:55:29;4.27;;;2.53;;
5393;SDS011;2720;52.396;10.064;2023-05-10T11:58:00;3.57;;;2.33;;
5393;SDS011;2720;52.396;10.064;2023-05-10T12:00:27;7.57;;;3.30;;
5393;SDS011;2720;52.396;10.064;2023-05-10T12:02:55;5.17;;;2.73;;
5393;SDS011;2720;52.396;10.064;2023-05-10T12:05:23;5.13;;;2.93;;
5393;SDS011;2720;52.396;10.064;2023-05-10T12:07:50;4.93;;;3.23;;
5393;SDS011;2720;52.396;10.064;2023-05-10T12:10:17;6.07;;;3.40;;
5393;SDS011;2720;52.396;10.064;2023-05-10T12:12:53;3.70;;;2.70;;
5393;SDS011;2720;52.396;10.064;2023-05-10T12:15:20;5.60;;;2.90;;
5393;SDS011;2720;52.396;10.064;2023-05-10T12:17:49;8.70;;;3.20;;
5393;SDS011;2720;52.396;10.064;2023-05-10T12:20:17;6.43;;;2.60;;
5393;SDS011;2720;52.396;10.064;2023-05-10T12:22:46;4.57;;;1.60;;
5393;SDS011;2720;52.396;10.064;2023-05-10T12:25:16;5.60;;;2.93;;
5393;SDS011;2720;52.396;10.064;2023-05-10T12:27:50;11.30;;;2.83;;
5393;SDS011;2720;52.396;10.064;2023-05-10T12:30:20;4.37;;;2.10;;
5393;SDS011;2720;52.396;10.064;2023-05-10T12:32:48;4.60;;;2.57;;
5393;SDS011;2720;52.396;10.064;2023-05-10T12:35:15;7.90;;;2.40;;
5393;SDS011;2720;52.396;10.064;2023-05-10T12:37:46;6.47;;;2.77;;
5393;SDS011;2720;52.396;10.064;2023-05-10T12:40:13;7.50;;;2.63;;
5393;SDS011;2720;52.396;10.064;2023-05-10T12:42:40;6.20;;;2.70;;
5393;SDS011;2720;52.396;10.064;2023-05-10T12:45:09;6.93;;;2.97;;
5393;SDS011;2720;52.396;10.064;2023-05-10T12:47:36;7.80;;;2.83;;
5393;SDS011;2720;52.396;10.064;2023-05-10T12:50:04;9.60;;;2.53;;
5393;SDS011;2720;52.396;10.064;2023-05-10T12:52:32;9.70;;;2.40;;
5393;SDS011;2720;52.396;10.064;2023-05-10T12:54:59;6.70;;;2.50;;
5393;SDS011;2720;52.396;10.064;2023-05-10T12:57:26;6.90;;;2.50;;
5393;SDS011;2720;52.396;10.064;2023-05-10T12:59:53;7.10;;;2.57;;
5393;SDS011;2720;52.396;10.064;2023-05-10T13:02:22;7.20;;;2.37;;
5393;SDS011;2720;52.396;10.064;2023-05-10T13:04:49;8.87;;;2.70;;
5393;SDS011;2720;52.396;10.064;2023-05-10T13:07:17;11.17;;;4.43;;
5393;SDS011;2720;52.396;10.064;2023-05-10T13:09:44;8.03;;;2.60;;
5393;SDS011;2720;52.396;10.064;2023-05-10T13:12:10;10.33;;;3.33;;
5393;SDS011;2720;52.396;10.064;2023-05-10T13:14:37;6.93;;;2.57;;
5393;SDS011;2720;52.396;10.064;2023-05-10T13:17:05;11.93;;;2.70;;
5393;SDS011;2720;52.396;10.064;2023-05-10T13:19:34;8.90;;;2.97;;
5393;SDS011;2720;52.396;10.064;2023-05-10T13:22:02;9.30;;;2.53;;
5393;SDS011;2720;52.396;10.064;2023-05-10T13:24:30;10.03;;;3.40;;
5393;SDS011;2720;52.396;10.064;2023-05-10T13:26:57;8.20;;;2.87;;
5393;SDS011;2720;52.396;10.064;2023-05-10T13:29:24;9.43;;;3.20;;
5393;SDS011;2720;52.396;10.064;2023-05-10T13:31:51;7.37;;;3.07;;
5393;SDS011;2720;52.396;10.064;2023-05-10T13:34:18;7.30;;;2.63;;
5393;SDS011;2720;52.396;10.064;2023-05-10T13:36:47;9.13;;;2.90;;
5393;SDS011;2720;52.396;10.064;2023-05-10T13:39:14;10.00;;;2.93;;
5393;SDS011;2720;52.396;10.064;2023-05-10T13:41:42;9.13;;;3.57;;
5393;SDS011;2720;52.396;10.064;2023-05-10T13:44:09;6.87;;;2.20;;
5393;SDS011;2720;52.396;10.064;2023-05-10T13:46:38;8.40;;;3.30;;
5393;SDS011;2720;52.396;10.064;2023-05-10T13:49:04;8.20;;;3.73;;
5393;SDS011;2720;52.396;10.064;2023-05-10T13:51:32;9.47;;;3.23;;
5393;SDS011;2720;52.396;10.064;2023-05-10T13:54:02;7.50;;;3.00;;
5393;SDS011;2720;52.396;10.064;2023-05-10T13:56:29;8.17;;;3.97;;
5393;SDS011;2720;52.396;10.064;2023-05-10T13:58:56;10.30;;;4.00;;
5393;SDS011;2720;52.396;10.064;2023-05-10T14:01:23;7.87;;;3.17;;
5393;SDS011;2720;52.396;10.064;2023-05-10T14:03:50;8.40;;;2.77;;
5393;SDS011;2720;52.396;10.064;2023-05-10T14:06:17;7.03;;;2.93;;
5393;SDS011;2720;52.396;10.064;2023-05-10T14:08:44;11.17;;;3.20;;
5393;SDS011;2720;52.396;10.064;2023-05-10T14:11:13;6.90;;;2.83;;
5393;SDS011;2720;52.396;10.064;2023-05-10T14:13:40;7.50;;;3.50;;
5393;SDS011;2720;52.396;10.064;2023-05-10T14:16:07;7.80;;;3.13;;
5393;SDS011;2720;52.396;10.064;2023-05-10T14:18:34;9.40;;;2.67;;
5393;SDS011;2720;52.396;10.064;2023-05-10T14:21:01;8.50;;;2.80;;
5393;SDS011;2720;52.396;10.064;2023-05-10T14:23:29;7.93;;;2.37;;
5393;SDS011;2720;52.396;10.064;2023-05-10T14:25:56;6.47;;;2.30;;
5393;SDS011;2720;52.396;10.064;2023-05-10T14:28:24;7.93;;;2.60;;
5393;SDS011;2720;52.396;10.064;2023-05-10T14:30:51;13.17;;;3.07;;
5393;SDS011;2720;52.396;10.064;2023-05-10T14:33:18;12.27;;;2.93;;
5393;SDS011;2720;52.396;10.064;2023-05-10T14:35:45;6.50;;;2.40;;
5393;SDS011;2720;52.396;10.064;2023-05-10T14:38:12;7.60;;;2.70;;
5393;SDS011;2720;52.396;10.064;2023-05-10T14:40:40;12.33;;;3.50;;
5393;SDS011;2720;52.396;10.064;2023-05-10T14:43:07;12.47;;;5.20;;
5393;SDS011;2720;52.396;10.064;2023-05-10T14:45:36;6.60;;;2.33;;
5393;SDS011;2720;52.396;10.064;2023-05-10T14:48:03;6.07;;;2.00;;
5393;SDS011;2720;52.396;10.064;2023-05-10T14:50:30;6.77;;;2.50;;
5393;SDS011;2720;52.396;10.064;2023-05-10T14:52:58;10.27;;;2.93;;
5393;SDS011;2720;52.396;10.064;2023-05-10T14:55:25;12.93;;;4.20;;
5393;SDS011;2720;52.396;10.064;2023-05-10T14:57:52;9.33;;;3.40;;
5393;SDS011;2720;52.396;10.064;2023-05-10T15:00:19;14.83;;;4.00;;
5393;SDS011;2720;52.396;10.064;2023-05-10T15:02:48;6.60;;;3.53;;
5393;SDS011;2720;52.396;10.064;2023-05-10T15:05:15;6.87;;;4.20;;
5393;SDS011;2720;52.396;10.064;2023-05-10T15:07:42;8.40;;;4.33;;
5393;SDS011;2720;52.396;10.064;2023-05-10T15:10:09;8.27;;;4.67;;
5393;SDS011;2720;52.396;10.064;2023-05-10T15:12:37;7.80;;;4.20;;
5393;SDS011;2720;52.396;10.064;2023-05-10T15:15:04;8.17;;;4.33;;
5393;SDS011;2720;52.396;10.064;2023-05-10T15:17:32;9.57;;;5.23;;
5393;SDS011;2720;52.396;10.064;2023-05-10T15:20:01;11.00;;;4.37;;
5393;SDS011;2720;52.396;10.064;2023-05-10T15:22:29;5.90;;;3.63;;
5393;SDS011;2720;52.396;10.064;2023-05-10T15:24:57;11.53;;;3.57;;
5393;SDS011;2720;52.396;10.064;2023-05-10T15:27:24;6.13;;;4.00;;
5393;SDS011;2720;52.396;10.064;2023-05-10T15:29:51;8.30;;;3.77;;
5393;SDS011;2720;52.396;10.064;2023-05-10T15:32:18;9.23;;;3.50;;
5393;SDS011;2720;52.396;10.064;2023-05-10T15:34:45;7.17;;;3.60;;
5393;SDS011;2720;52.396;10.064;2023-05-10T15:37:13;7.57;;;4.03;;
5393;SDS011;2720;52.396;10.064;2023-05-10T15:39:40;8.50;;;4.60;;
5393;SDS011;2720;52.396;10.064;2023-05-10T15:42:07;6.63;;;4.00;;
5393;SDS011;2720;52.396;10.064;2023-05-10T15:44:34;7.30;;;3.30;;
5393;SDS011;2720;52.396;10.064;2023-05-10T15:47:03;6.63;;;4.07;;
5393;SDS011;2720;52.396;10.064;2023-05-10T15:49:30;7.13;;;3.97;;
5393;SDS011;2720;52.396;10.064;2023-05-10T15:51:57;7.20;;;3.70;;
5393;SDS011;2720;52.396;10.064;2023-05-10T15:54:26;11.47;;;3.97;;
5393;SDS011;2720;52.396;10.064;2023-05-10T15:56:53;9.17;;;4.70;;
5393;SDS011;2720;52.396;10.064;2023-05-10T15:59:20;9.17;;;4.30;;
5393;SDS011;2720;52.396;10.064;2023-05-10T16:01:47;10.00;;;4.47;;
5393;SDS011;2720;52.396;10.064;2023-05-10T16:04:14;11.33;;;5.17;;
5393;SDS011;2720;52.396;10.064;2023-05-10T16:06:42;14.40;;;6.00;;
5393;SDS011;2720;52.396;10.064;2023-05-10T16:09:09;13.80;;;5.77;;
5393;SDS011;2720;52.396;10.064;2023-05-10T16:11:37;12.53;;;6.20;;
5393;SDS011;2720;52.396;10.064;2023-05-10T16:14:04;9.47;;;4.33;;
5393;SDS011;2720;52.396;10.064;2023-05-10T16:16:31;11.53;;;6.37;;
5393;SDS011;2720;52.396;10.064;2023-05-10T16:18:58;11.37;;;5.23;;
5393;SDS011;2720;52.396;10.064;2023-05-10T16:21:28;13.30;;;7.17;;
5393;SDS011;2720;52.396;10.064;2023-05-10T16:23:55;12.33;;;7.20;;
5393;SDS011;2720;52.396;10.064;2023-05-10T16:26:22;18.90;;;9.00;;
5393;SDS011;2720;52.396;10.064;2023-05-10T16:28:51;12.90;;;7.77;;
5393;SDS011;2720;52.396;10.064;2023-05-10T16:31:18;19.03;;;7.07;;
5393;SDS011;2720;52.396;10.064;2023-05-10T16:33:44;14.40;;;7.40;;
5393;SDS011;2720;52.396;10.064;2023-05-10T16:36:12;13.50;;;5.33;;
5393;SDS011;2720;52.396;10.064;2023-05-10T16:38:39;15.70;;;6.90;;
5393;SDS011;2720;52.396;10.064;2023-05-10T16:41:06;12.27;;;6.00;;
5393;SDS011;2720;52.396;10.064;2023-05-10T16:43:33;10.57;;;5.97;;
5393;SDS011;2720;52.396;10.064;2023-05-10T16:46:02;13.00;;;7.10;;
5393;SDS011;2720;52.396;10.064;2023-05-10T16:48:34;23.00;;;7.97;;
5393;SDS011;2720;52.396;10.064;2023-05-10T16:51:01;14.23;;;8.40;;
5393;SDS011;2720;52.396;10.064;2023-05-10T16:53:29;26.87;;;8.90;;
5393;SDS011;2720;52.396;10.064;2023-05-10T16:55:56;20.90;;;10.47;;
5393;SDS011;2720;52.396;10.064;2023-05-10T16:58:23;23.90;;;11.37;;
5393;SDS011;2720;52.396;10.064;2023-05-10T17:00:50;20.70;;;11.63;;
5393;SDS011;2720;52.396;10.064;2023-05-10T17:03:18;28.27;;;13.40;;
5393;SDS011;2720;52.396;10.064;2023-05-10T17:05:46;21.93;;;11.77;;
5393;SDS011;2720;52.396;10.064;2023-05-10T17:08:13;20.37;;;11.37;;
5393;SDS011;2720;52.396;10.064;2023-05-10T17:10:39;21.17;;;10.70;;
5393;SDS011;2720;52.396;10.064;2023-05-10T17:13:06;18.23;;;10.90;;
5393;SDS011;2720;52.396;10.064;2023-05-10T17:15:34;21.50;;;10.53;;
5393;SDS011;2720;52.396;10.064;2023-05-10T17:18:02;24.10;;;10.20;;
5393;SDS011;2720;52.396;10.064;2023-05-10T17:20:30;24.40;;;12.53;;
5393;SDS011;2720;52.396;10.064;2023-05-10T17:22:57;32.57;;;16.97;;
5393;SDS011;2720;52.396;10.064;2023-05-10T17:25:24;28.33;;;12.47;;
5393;SDS011;2720;52.396;10.064;2023-05-10T17:27:51;21.10;;;10.27;;
5393;SDS011;2720;52.396;10.064;2023-05-10T17:30:18;23.53;;;11.37;;
5393;SDS011;2720;52.396;10.064;2023-05-10T17:32:50;25.57;;;12.53;;